sensor_id;sensor_type;location;lat;lon;timestamp;pressure;altitude;pressure_sealevel;temperature;humidity
73821;BME280;62150;43.582;1.456;2023-10-08T05:13:50;100738.00;;;18.07;88.85
73821;BME280;62150;43.582;1.456;2023-10-08T05:16:31;100745.34;;;18.15;88.32
73821;BME280;62150;43.582;1.456;2023-10-08T05:19:15;100750.66;;;17.99;90.67
73821;BME280;62150;43.582;1.456;2023-10-08T05:22:03;100741.72;;;18.32;85.45
73821;BME280;62150;43.582;1.456;2023-10-08T05:24:44;100752.56;;;18.38;86.17
73821;BME280;62150;43.582;1.456;2023-10-08T05:27:31;100746.25;;;18.42;85.01
73821;BME280;62150;43.582;1.456;2023-10-08T05:30:25;100754.16;;;18.27;84.78
73821;BME280;62150;43.582;1.456;2023-10-08T05:32:55;100755.38;;;18.35;86.17
73821;BME280;62150;43.582;1.456;2023-10-08T05:35:50;100759.44;;;18.39;84.41
73821;BME280;62150;43.582;1.456;2023-10-08T05:38:21;100758.50;;;18.40;84.82
73821;BME280;62150;43.582;1.456;2023-10-08T05:41:00;100762.88;;;18.40;84.67
73821;BME280;62150;43.582;1.456;2023-10-08T05:43:54;100768.09;;;18.26;89.41
73821;BME280;62150;43.582;1.456;2023-10-08T05:46:40;100761.00;;;18.42;89.98
73821;BME280;62150;43.582;1.456;2023-10-08T05:49:33;100767.34;;;18.24;92.60
73821;BME280;62150;43.582;1.456;2023-10-08T05:52:18;100762.25;;;18.36;90.24
73821;BME280;62150;43.582;1.456;2023-10-08T05:55:07;100771.88;;;18.06;94.19
73821;BME280;62150;43.582;1.456;2023-10-08T05:57:44;100771.06;;;18.20;92.70
73821;BME280;62150;43.582;1.456;2023-10-08T06:00:18;100771.06;;;18.34;91.95
73821;BME280;62150;43.582;1.456;2023-10-08T06:03:14;100776.78;;;17.52;100.00
73821;BME280;62150;43.582;1.456;2023-10-08T06:05:55;100770.84;;;17.66;99.49
73821;BME280;62150;43.582;1.456;2023-10-08T06:08:48;100780.00;;;17.71;100.00
73821;BME280;62150;43.582;1.456;2023-10-08T06:11:18;100777.19;;;18.04;95.66
73821;BME280;62150;43.582;1.456;2023-10-08T06:14:03;100784.97;;;18.47;92.51
73821;BME280;62150;43.582;1.456;2023-10-08T06:16:40;100796.06;;;18.22;95.34
73821;BME280;62150;43.582;1.456;2023-10-08T06:19:14;100795.03;;;18.39;91.66
73821;BME280;62150;43.582;1.456;2023-10-08T06:21:42;100795.75;;;18.55;89.41
73821;BME280;62150;43.582;1.456;2023-10-08T06:24:10;100799.38;;;18.38;92.05
73821;BME280;62150;43.582;1.456;2023-10-08T06:26:43;100804.03;;;18.19;94.46
73821;BME280;62150;43.582;1.456;2023-10-08T06:29:15;100798.84;;;18.48;90.58
73821;BME280;62150;43.582;1.456;2023-10-08T06:31:56;100798.19;;;18.44;90.79
73821;BME280;62150;43.582;1.456;2023-10-08T06:34:29;100803.97;;;18.63;89.81
73821;BME280;62150;43.582;1.456;2023-10-08T06:37:00;100798.19;;;18.58;90.31
73821;BME280;62150;43.582;1.456;2023-10-08T06:39:27;100804.59;;;18.24;96.15
73821;BME280;62150;43.582;1.456;2023-10-08T06:42:13;100804.78;;;18.50;91.07
73821;BME280;62150;43.582;1.456;2023-10-08T06:44:41;100805.44;;;18.25;95.42
73821;BME280;62150;43.582;1.456;2023-10-08T06:47:12;100814.72;;;18.71;90.31
73821;BME280;62150;43.582;1.456;2023-10-08T06:49:43;100808.31;;;18.77;90.45
73821;BME280;62150;43.582;1.456;2023-10-08T06:52:11;100812.66;;;18.77;92.37
73821;BME280;62150;43.582;1.456;2023-10-08T06:54:40;100811.94;;;18.74;89.60
73821;BME280;62150;43.582;1.456;2023-10-08T06:57:08;100814.09;;;18.68;91.72
73821;BME280;62150;43.582;1.456;2023-10-08T06:59:39;100808.06;;;18.67;90.75
73821;BME280;62150;43.582;1.456;2023-10-08T07:02:08;100814.94;;;18.68;91.29
73821;BME280;62150;43.582;1.456;2023-10-08T07:04:37;100816.19;;;18.75;90.78
73821;BME280;62150;43.582;1.456;2023-10-08T07:07:07;100819.19;;;18.84;89.59
73821;BME280;62150;43.582;1.456;2023-10-08T07:09:35;100826.06;;;18.85;89.91
73821;BME280;62150;43.582;1.456;2023-10-08T07:12:03;100820.28;;;18.94;89.20
73821;BME280;62150;43.582;1.456;2023-10-08T07:14:32;100822.53;;;18.86;91.09
73821;BME280;62150;43.582;1.456;2023-10-08T07:17:00;100822.44;;;19.14;87.63
73821;BME280;62150;43.582;1.456;2023-10-08T07:19:32;100820.84;;;19.26;86.52
73821;BME280;62150;43.582;1.456;2023-10-08T07:22:03;100826.44;;;19.20;87.36
73821;BME280;62150;43.582;1.456;2023-10-08T07:24:45;100827.06;;;18.96;91.56
73821;BME280;62150;43.582;1.456;2023-10-08T07:27:16;100829.31;;;19.15;88.97
73821;BME280;62150;43.582;1.456;2023-10-08T07:29:47;100828.50;;;19.15;89.75
73821;BME280;62150;43.582;1.456;2023-10-08T07:32:15;100834.28;;;18.64;94.56
73821;BME280;62150;43.582;1.456;2023-10-08T07:34:45;100833.97;;;19.10;91.26
73821;BME280;62150;43.582;1.456;2023-10-08T07:37:12;100833.69;;;18.45;100.00
73821;BME280;62150;43.582;1.456;2023-10-08T07:39:41;100837.19;;;19.01;95.42
73821;BME280;62150;43.582;1.456;2023-10-08T07:42:14;100836.78;;;19.07;96.49
73821;BME280;62150;43.582;1.456;2023-10-08T07:44:41;100837.78;;;18.78;100.00
73821;BME280;62150;43.582;1.456;2023-10-08T07:47:09;100831.91;;;19.29;100.00
73821;BME280;62150;43.582;1.456;2023-10-08T07:49:38;100844.22;;;19.13;100.00
73821;BME280;62150;43.582;1.456;2023-10-08T07:52:06;100839.84;;;19.14;100.00
73821;BME280;62150;43.582;1.456;2023-10-08T07:54:33;100838.34;;;19.51;100.00
73821;BME280;62150;43.582;1.456;2023-10-08T07:57:02;100842.63;;;19.52;100.00
73821;BME280;62150;43.582;1.456;2023-10-08T07:59:37;100831.84;;;19.83;100.00
73821;BME280;62150;43.582;1.456;2023-10-08T08:02:08;100836.38;;;20.06;100.00
73821;BME280;62150;43.582;1.456;2023-10-08T08:04:37;100838.66;;;19.98;100.00
73821;BME280;62150;43.582;1.456;2023-10-08T08:07:06;100840.34;;;19.60;100.00
73821;BME280;62150;43.582;1.456;2023-10-08T08:09:33;100833.75;;;20.06;100.00
73821;BME280;62150;43.582;1.456;2023-10-08T08:12:05;100845.13;;;20.31;100.00
73821;BME280;62150;43.582;1.456;2023-10-08T08:14:38;100841.06;;;20.52;100.00
73821;BME280;62150;43.582;1.456;2023-10-08T08:17:07;100839.59;;;20.73;100.00
73821;BME280;62150;43.582;1.456;2023-10-08T08:19:40;100843.34;;;20.69;100.00
73821;BME280;62150;43.582;1.456;2023-10-08T08:22:10;100841.91;;;20.65;100.00
73821;BME280;62150;43.582;1.456;2023-10-08T08:24:41;100837.88;;;20.85;100.00
73821;BME280;62150;43.582;1.456;2023-10-08T08:27:11;100836.88;;;20.75;100.00
73821;BME280;62150;43.582;1.456;2023-10-08T08:29:51;100839.13;;;21.16;100.00
73821;BME280;62150;43.582;1.456;2023-10-08T08:32:22;100838.31;;;20.79;100.00
73821;BME280;62150;43.582;1.456;2023-10-08T08:34:50;100843.03;;;21.11;100.00
73821;BME280;62150;43.582;1.456;2023-10-08T08:37:18;100842.09;;;21.12;100.00
73821;BME280;62150;43.582;1.456;2023-10-08T08:39:48;100848.72;;;21.28;100.00
73821;BME280;62150;43.582;1.456;2023-10-08T08:42:19;100845.16;;;21.53;100.00
73821;BME280;62150;43.582;1.456;2023-10-08T08:44:50;100835.13;;;21.36;100.00
73821;BME280;62150;43.582;1.456;2023-10-08T08:47:20;100832.75;;;21.68;100.00
73821;BME280;62150;43.582;1.456;2023-10-08T08:49:51;100838.72;;;21.22;100.00
73821;BME280;62150;43.582;1.456;2023-10-08T08:52:21;100833.53;;;21.57;100.00
73821;BME280;62150;43.582;1.456;2023-10-08T08:54:50;100837.63;;;22.08;100.00
73821;BME280;62150;43.582;1.456;2023-10-08T08:57:18;100833.00;;;22.22;100.00
73821;BME280;62150;43.582;1.456;2023-10-08T08:59:53;100833.97;;;22.32;100.00
73821;BME280;62150;43.582;1.456;2023-10-08T09:02:22;100833.72;;;22.58;99.32
73821;BME280;62150;43.582;1.456;2023-10-08T09:04:50;100831.44;;;22.53;100.00
73821;BME280;62150;43.582;1.456;2023-10-08T09:07:20;100824.31;;;22.66;99.91
73821;BME280;62150;43.582;1.456;2023-10-08T09:09:48;100824.75;;;22.94;98.19
73821;BME280;62150;43.582;1.456;2023-10-08T09:12:17;100824.78;;;22.60;99.30
73821;BME280;62150;43.582;1.456;2023-10-08T09:14:47;100828.06;;;23.18;95.51
73821;BME280;62150;43.582;1.456;2023-10-08T09:17:17;100819.63;;;23.35;94.74
73821;BME280;62150;43.582;1.456;2023-10-08T09:19:46;100825.63;;;23.58;91.73
73821;BME280;62150;43.582;1.456;2023-10-08T09:22:13;100817.56;;;23.92;89.23
73821;BME280;62150;43.582;1.456;2023-10-08T09:24:45;100822.50;;;23.64;88.02
73821;BME280;62150;43.582;1.456;2023-10-08T09:27:14;100810.31;;;23.75;88.00
73821;BME280;62150;43.582;1.456;2023-10-08T09:29:47;100809.69;;;24.13;84.88
73821;BME280;62150;43.582;1.456;2023-10-08T09:32:16;100813.19;;;24.44;81.78
73821;BME280;62150;43.582;1.456;2023-10-08T09:34:49;100811.84;;;24.28;78.32
73821;BME280;62150;43.582;1.456;2023-10-08T09:37:17;100808.75;;;24.44;72.62
73821;BME280;62150;43.582;1.456;2023-10-08T09:39:49;100815.53;;;24.87;69.39
73821;BME280;62150;43.582;1.456;2023-10-08T09:42:20;100807.50;;;24.88;64.68
73821;BME280;62150;43.582;1.456;2023-10-08T09:44:50;100803.94;;;24.99;60.71
73821;BME280;62150;43.582;1.456;2023-10-08T09:47:21;100800.22;;;25.30;56.81
73821;BME280;62150;43.582;1.456;2023-10-08T09:49:56;100795.66;;;25.32;57.57
73821;BME280;62150;43.582;1.456;2023-10-08T09:52:28;100799.09;;;25.62;54.95
73821;BME280;62150;43.582;1.456;2023-10-08T09:55:01;100794.78;;;25.80;58.81
73821;BME280;62150;43.582;1.456;2023-10-08T09:57:29;100802.44;;;25.74;54.94
73821;BME280;62150;43.582;1.456;2023-10-08T09:59:59;100797.03;;;25.56;57.42
73821;BME280;62150;43.582;1.456;2023-10-08T10:02:28;100793.00;;;26.27;53.61
73821;BME280;62150;43.582;1.456;2023-10-08T10:04:57;100777.78;;;26.12;53.56
73821;BME280;62150;43.582;1.456;2023-10-08T10:07:26;100782.03;;;25.95;54.30
73821;BME280;62150;43.582;1.456;2023-10-08T10:09:55;100783.75;;;26.51;50.95
73821;BME280;62150;43.582;1.456;2023-10-08T10:12:26;100781.63;;;25.90;50.28
73821;BME280;62150;43.582;1.456;2023-10-08T10:14:55;100782.03;;;26.59;50.51
73821;BME280;62150;43.582;1.456;2023-10-08T10:17:25;100778.56;;;26.59;49.21
73821;BME280;62150;43.582;1.456;2023-10-08T10:19:56;100775.25;;;26.57;48.79
73821;BME280;62150;43.582;1.456;2023-10-08T10:22:29;100766.03;;;26.88;46.96
73821;BME280;62150;43.582;1.456;2023-10-08T10:24:59;100771.00;;;26.91;45.85
73821;BME280;62150;43.582;1.456;2023-10-08T10:27:33;100763.72;;;27.03;45.40
73821;BME280;62150;43.582;1.456;2023-10-08T10:30:05;100766.34;;;27.03;45.59
73821;BME280;62150;43.582;1.456;2023-10-08T10:32:35;100762.09;;;27.63;42.90
73821;BME280;62150;43.582;1.456;2023-10-08T10:35:04;100763.31;;;27.69;43.39
73821;BME280;62150;43.582;1.456;2023-10-08T10:37:33;100761.53;;;28.12;41.78
73821;BME280;62150;43.582;1.456;2023-10-08T10:40:09;100760.97;;;27.66;45.36
73821;BME280;62150;43.582;1.456;2023-10-08T10:42:39;100766.13;;;28.01;45.00
73821;BME280;62150;43.582;1.456;2023-10-08T10:45:14;100759.59;;;27.88;44.01
73821;BME280;62150;43.582;1.456;2023-10-08T10:48:01;100752.38;;;27.64;43.83
73821;BME280;62150;43.582;1.456;2023-10-08T10:50:41;100754.75;;;28.09;42.69
73821;BME280;62150;43.582;1.456;2023-10-08T10:53:17;100754.00;;;27.91;42.93
73821;BME280;62150;43.582;1.456;2023-10-08T10:55:45;100752.16;;;27.83;42.52
73821;BME280;62150;43.582;1.456;2023-10-08T10:58:25;100759.44;;;28.65;40.44
73821;BME280;62150;43.582;1.456;2023-10-08T11:00:54;100747.81;;;28.42;40.69
73821;BME280;62150;43.582;1.456;2023-10-08T11:03:25;100751.94;;;28.37;41.09
73821;BME280;62150;43.582;1.456;2023-10-08T11:05:58;100755.66;;;28.68;40.08
73821;BME280;62150;43.582;1.456;2023-10-08T11:08:32;100750.44;;;28.42;41.25
73821;BME280;62150;43.582;1.456;2023-10-08T11:11:01;100750.59;;;28.99;40.11
73821;BME280;62150;43.582;1.456;2023-10-08T11:13:34;100747.47;;;29.04;39.46
73821;BME280;62150;43.582;1.456;2023-10-08T11:16:06;100744.31;;;29.16;38.15
73821;BME280;62150;43.582;1.456;2023-10-08T11:18:41;100735.91;;;29.45;39.28
73821;BME280;62150;43.582;1.456;2023-10-08T11:21:10;100738.19;;;29.48;38.94
73821;BME280;62150;43.582;1.456;2023-10-08T11:23:46;100730.06;;;29.74;38.64
73821;BME280;62150;43.582;1.456;2023-10-08T11:26:23;100732.59;;;29.43;37.91
73821;BME280;62150;43.582;1.456;2023-10-08T11:28:59;100741.69;;;29.24;38.16
73821;BME280;62150;43.582;1.456;2023-10-08T11:31:29;100735.38;;;29.50;37.29
73821;BME280;62150;43.582;1.456;2023-10-08T11:34:00;100730.66;;;29.84;36.66
73821;BME280;62150;43.582;1.456;2023-10-08T11:36:36;100729.00;;;29.99;37.30
73821;BME280;62150;43.582;1.456;2023-10-08T11:39:15;100726.41;;;29.75;37.63
73821;BME280;62150;43.582;1.456;2023-10-08T11:41:56;100728.25;;;30.22;35.33
73821;BME280;62150;43.582;1.456;2023-10-08T11:44:24;100723.94;;;30.21;35.01
73821;BME280;62150;43.582;1.456;2023-10-08T11:46:56;100720.53;;;30.04;35.43
73821;BME280;62150;43.582;1.456;2023-10-08T11:49:30;100715.53;;;30.48;34.56
73821;BME280;62150;43.582;1.456;2023-10-08T11:52:04;100704.38;;;30.53;35.79
73821;BME280;62150;43.582;1.456;2023-10-08T11:54:31;100716.56;;;30.70;35.31
73821;BME280;62150;43.582;1.456;2023-10-08T11:57:00;100710.19;;;30.79;34.40
73821;BME280;62150;43.582;1.456;2023-10-08T11:59:29;100701.72;;;30.53;34.97
73821;BME280;62150;43.582;1.456;2023-10-08T12:01:58;100686.25;;;30.64;34.61
73821;BME280;62150;43.582;1.456;2023-10-08T12:04:25;100688.72;;;30.89;33.10
73821;BME280;62150;43.582;1.456;2023-10-08T12:06:55;100683.28;;;31.05;33.40
73821;BME280;62150;43.582;1.456;2023-10-08T12:09:24;100678.09;;;30.89;33.52
73821;BME280;62150;43.582;1.456;2023-10-08T12:11:53;100678.69;;;30.99;34.21
73821;BME280;62150;43.582;1.456;2023-10-08T12:14:22;100667.78;;;31.31;33.07
73821;BME280;62150;43.582;1.456;2023-10-08T12:16:53;100668.72;;;31.01;33.30
73821;BME280;62150;43.582;1.456;2023-10-08T12:19:22;100661.16;;;30.75;33.69
73821;BME280;62150;43.582;1.456;2023-10-08T12:21:52;100660.56;;;31.40;32.22
73821;BME280;62150;43.582;1.456;2023-10-08T12:24:19;100653.34;;;31.49;31.97
73821;BME280;62150;43.582;1.456;2023-10-08T12:26:51;100656.81;;;30.97;33.19
73821;BME280;62150;43.582;1.456;2023-10-08T12:29:18;100654.44;;;31.40;32.49
73821;BME280;62150;43.582;1.456;2023-10-08T12:31:48;100649.38;;;31.30;32.68
73821;BME280;62150;43.582;1.456;2023-10-08T12:34:19;100645.47;;;31.03;32.09
73821;BME280;62150;43.582;1.456;2023-10-08T12:36:49;100646.81;;;31.37;31.93
73821;BME280;62150;43.582;1.456;2023-10-08T12:39:16;100641.97;;;31.55;31.43
73821;BME280;62150;43.582;1.456;2023-10-08T12:41:44;100643.28;;;31.74;31.18
73821;BME280;62150;43.582;1.456;2023-10-08T12:44:13;100639.03;;;31.64;31.61
73821;BME280;62150;43.582;1.456;2023-10-08T12:46:41;100632.66;;;31.74;30.92
73821;BME280;62150;43.582;1.456;2023-10-08T12:49:10;100635.00;;;32.55;29.48
73821;BME280;62150;43.582;1.456;2023-10-08T12:51:37;100634.28;;;32.68;28.98
73821;BME280;62150;43.582;1.456;2023-10-08T12:54:07;100638.72;;;32.61;29.40
73821;BME280;62150;43.582;1.456;2023-10-08T12:56:37;100626.63;;;32.80;28.98
73821;BME280;62150;43.582;1.456;2023-10-08T12:59:12;100621.19;;;32.45;28.55
73821;BME280;62150;43.582;1.456;2023-10-08T13:01:47;100621.81;;;32.90;27.14
73821;BME280;62150;43.582;1.456;2023-10-08T13:04:17;100619.34;;;32.95;26.66
73821;BME280;62150;43.582;1.456;2023-10-08T13:06:52;100625.97;;;32.14;28.72
73821;BME280;62150;43.582;1.456;2023-10-08T13:09:23;100630.59;;;31.90;29.69
73821;BME280;62150;43.582;1.456;2023-10-08T13:11:50;100617.28;;;32.69;28.67
73821;BME280;62150;43.582;1.456;2023-10-08T13:14:19;100616.94;;;33.00;27.95
73821;BME280;62150;43.582;1.456;2023-10-08T13:16:48;100610.50;;;33.16;27.27
73821;BME280;62150;43.582;1.456;2023-10-08T13:19:20;100610.25;;;33.39;27.46
73821;BME280;62150;43.582;1.456;2023-10-08T13:21:49;100608.75;;;33.29;27.00
73821;BME280;62150;43.582;1.456;2023-10-08T13:24:18;100614.09;;;33.77;27.38
73821;BME280;62150;43.582;1.456;2023-10-08T13:26:46;100611.63;;;33.76;26.86
73821;BME280;62150;43.582;1.456;2023-10-08T13:29:14;100611.75;;;34.02;26.02
73821;BME280;62150;43.582;1.456;2023-10-08T13:31:45;100605.44;;;33.55;27.08
73821;BME280;62150;43.582;1.456;2023-10-08T13:34:13;100602.56;;;33.22;27.80
73821;BME280;62150;43.582;1.456;2023-10-08T13:36:42;100602.41;;;33.72;26.49
73821;BME280;62150;43.582;1.456;2023-10-08T13:39:13;100602.34;;;34.13;25.50
73821;BME280;62150;43.582;1.456;2023-10-08T13:41:44;100602.56;;;34.18;25.59
73821;BME280;62150;43.582;1.456;2023-10-08T13:44:14;100598.09;;;34.45;24.38
73821;BME280;62150;43.582;1.456;2023-10-08T13:46:41;100598.88;;;34.19;25.01
73821;BME280;62150;43.582;1.456;2023-10-08T13:49:16;100596.97;;;34.00;25.53
73821;BME280;62150;43.582;1.456;2023-10-08T13:51:44;100595.78;;;34.15;25.66
73821;BME280;62150;43.582;1.456;2023-10-08T13:54:12;100593.38;;;34.47;24.92
73821;BME280;62150;43.582;1.456;2023-10-08T13:56:40;100597.38;;;33.96;25.72
73821;BME280;62150;43.582;1.456;2023-10-08T13:59:14;100592.13;;;34.23;25.54
73821;BME280;62150;43.582;1.456;2023-10-08T14:01:44;100590.47;;;34.22;26.08
73821;BME280;62150;43.582;1.456;2023-10-08T14:04:15;100581.28;;;34.44;25.28
73821;BME280;62150;43.582;1.456;2023-10-08T14:06:46;100574.91;;;34.85;25.43
73821;BME280;62150;43.582;1.456;2023-10-08T14:09:18;100579.38;;;35.04;24.52
73821;BME280;62150;43.582;1.456;2023-10-08T14:11:48;100579.56;;;35.16;23.95
73821;BME280;62150;43.582;1.456;2023-10-08T14:14:18;100574.50;;;34.88;23.93
73821;BME280;62150;43.582;1.456;2023-10-08T14:16:50;100579.97;;;35.19;23.23
73821;BME280;62150;43.582;1.456;2023-10-08T14:19:20;100576.75;;;34.71;24.35
73821;BME280;62150;43.582;1.456;2023-10-08T14:21:53;100580.03;;;34.67;24.28
73821;BME280;62150;43.582;1.456;2023-10-08T14:24:26;100575.34;;;34.82;24.51
73821;BME280;62150;43.582;1.456;2023-10-08T14:26:57;100569.56;;;34.52;24.12
73821;BME280;62150;43.582;1.456;2023-10-08T14:29:29;100576.72;;;34.25;24.68
73821;BME280;62150;43.582;1.456;2023-10-08T14:31:56;100573.28;;;34.51;23.71
73821;BME280;62150;43.582;1.456;2023-10-08T14:34:27;100568.28;;;35.14;23.39
73821;BME280;62150;43.582;1.456;2023-10-08T14:37:08;100567.03;;;35.30;23.25
73821;BME280;62150;43.582;1.456;2023-10-08T14:39:53;100577.31;;;35.33;23.44
73821;BME280;62150;43.582;1.456;2023-10-08T14:42:38;100576.56;;;34.99;23.36
73821;BME280;62150;43.582;1.456;2023-10-08T14:45:23;100572.81;;;35.00;23.34
73821;BME280;62150;43.582;1.456;2023-10-08T14:47:53;100572.16;;;35.76;22.54
73821;BME280;62150;43.582;1.456;2023-10-08T14:50:23;100570.53;;;35.10;23.12
73821;BME280;62150;43.582;1.456;2023-10-08T14:52:53;100577.22;;;35.97;22.22
73821;BME280;62150;43.582;1.456;2023-10-08T14:55:21;100570.78;;;36.05;21.72
73821;BME280;62150;43.582;1.456;2023-10-08T14:57:50;100569.06;;;35.27;23.44
73821;BME280;62150;43.582;1.456;2023-10-08T15:00:19;100574.00;;;35.24;22.90
73821;BME280;62150;43.582;1.456;2023-10-08T15:02:51;100569.34;;;35.64;22.65
73821;BME280;62150;43.582;1.456;2023-10-08T15:05:19;100565.31;;;35.48;23.02
73821;BME280;62150;43.582;1.456;2023-10-08T15:07:50;100565.28;;;35.55;23.05
73821;BME280;62150;43.582;1.456;2023-10-08T15:10:19;100566.38;;;35.85;22.19
73821;BME280;62150;43.582;1.456;2023-10-08T15:12:47;100566.41;;;36.10;22.16
73821;BME280;62150;43.582;1.456;2023-10-08T15:15:15;100572.84;;;35.65;22.76
73821;BME280;62150;43.582;1.456;2023-10-08T15:17:44;100576.41;;;35.45;22.96
73821;BME280;62150;43.582;1.456;2023-10-08T15:20:15;100571.94;;;35.84;22.47
73821;BME280;62150;43.582;1.456;2023-10-08T15:22:43;100570.22;;;35.96;22.59
73821;BME280;62150;43.582;1.456;2023-10-08T15:25:14;100575.13;;;35.61;22.47
73821;BME280;62150;43.582;1.456;2023-10-08T15:27:43;100571.41;;;35.62;21.96
73821;BME280;62150;43.582;1.456;2023-10-08T15:30:13;100577.44;;;35.51;22.77
73821;BME280;62150;43.582;1.456;2023-10-08T15:32:43;100567.09;;;35.61;23.17
73821;BME280;62150;43.582;1.456;2023-10-08T15:35:12;100575.84;;;35.75;22.58
73821;BME280;62150;43.582;1.456;2023-10-08T15:37:40;100574.19;;;35.87;22.47
73821;BME280;62150;43.582;1.456;2023-10-08T15:40:10;100572.72;;;35.40;22.81
73821;BME280;62150;43.582;1.456;2023-10-08T15:42:46;100567.53;;;34.80;23.83
73821;BME280;62150;43.582;1.456;2023-10-08T15:45:14;100567.78;;;35.43;23.16
73821;BME280;62150;43.582;1.456;2023-10-08T15:47:42;100562.41;;;35.56;22.43
73821;BME280;62150;43.582;1.456;2023-10-08T15:50:10;100570.81;;;34.63;23.58
73821;BME280;62150;43.582;1.456;2023-10-08T15:52:38;100571.00;;;34.68;23.52
73821;BME280;62150;43.582;1.456;2023-10-08T15:55:07;100577.78;;;34.77;23.29
73821;BME280;62150;43.582;1.456;2023-10-08T15:57:37;100577.91;;;35.21;23.24
73821;BME280;62150;43.582;1.456;2023-10-08T16:00:06;100579.78;;;35.34;23.77
73821;BME280;62150;43.582;1.456;2023-10-08T16:02:35;100582.31;;;35.60;23.41
73821;BME280;62150;43.582;1.456;2023-10-08T16:05:02;100584.56;;;35.64;23.42
73821;BME280;62150;43.582;1.456;2023-10-08T16:07:34;100583.88;;;35.23;24.85
73821;BME280;62150;43.582;1.456;2023-10-08T16:10:01;100587.19;;;35.06;24.19
73821;BME280;62150;43.582;1.456;2023-10-08T16:12:29;100592.53;;;34.66;25.11
73821;BME280;62150;43.582;1.456;2023-10-08T16:14:58;100592.38;;;34.87;24.41
73821;BME280;62150;43.582;1.456;2023-10-08T16:17:25;100590.50;;;34.75;24.72
73821;BME280;62150;43.582;1.456;2023-10-08T16:19:56;100594.53;;;34.11;26.29
73821;BME280;62150;43.582;1.456;2023-10-08T16:22:24;100597.50;;;34.30;25.40
73821;BME280;62150;43.582;1.456;2023-10-08T16:24:52;100592.16;;;34.43;24.44
73821;BME280;62150;43.582;1.456;2023-10-08T16:27:19;100596.63;;;34.29;25.33
73821;BME280;62150;43.582;1.456;2023-10-08T16:29:48;100594.81;;;34.36;24.65
73821;BME280;62150;43.582;1.456;2023-10-08T16:32:17;100601.13;;;34.15;25.44
73821;BME280;62150;43.582;1.456;2023-10-08T16:34:44;100601.19;;;33.74;25.63
73821;BME280;62150;43.582;1.456;2023-10-08T16:37:12;100594.69;;;33.96;26.10
73821;BME280;62150;43.582;1.456;2023-10-08T16:39:47;100597.41;;;34.10;26.03
73821;BME280;62150;43.582;1.456;2023-10-08T16:42:16;100599.50;;;33.60;26.38
73821;BME280;62150;43.582;1.456;2023-10-08T16:44:44;100592.88;;;33.90;25.30
73821;BME280;62150;43.582;1.456;2023-10-08T16:47:12;100599.00;;;33.97;25.81
73821;BME280;62150;43.582;1.456;2023-10-08T16:49:44;100596.75;;;33.88;26.13
73821;BME280;62150;43.582;1.456;2023-10-08T16:52:12;100601.50;;;33.51;26.39
73821;BME280;62150;43.582;1.456;2023-10-08T16:54:40;100603.97;;;34.07;25.86
73821;BME280;62150;43.582;1.456;2023-10-08T16:57:07;100602.44;;;33.37;26.38
73821;BME280;62150;43.582;1.456;2023-10-08T16:59:35;100600.03;;;33.42;27.31
73821;BME280;62150;43.582;1.456;2023-10-08T17:02:04;100609.72;;;32.94;27.52
73821;BME280;62150;43.582;1.456;2023-10-08T17:04:31;100616.81;;;32.80;27.66
73821;BME280;62150;43.582;1.456;2023-10-08T17:07:00;100617.00;;;32.79;27.83
73821;BME280;62150;43.582;1.456;2023-10-08T17:09:30;100622.81;;;32.89;27.20
73821;BME280;62150;43.582;1.456;2023-10-08T17:11:58;100618.75;;;32.29;28.62
73821;BME280;62150;43.582;1.456;2023-10-08T17:14:25;100619.16;;;32.26;29.40
73821;BME280;62150;43.582;1.456;2023-10-08T17:16:53;100624.06;;;32.72;27.91
73821;BME280;62150;43.582;1.456;2023-10-08T17:19:20;100630.31;;;32.36;28.49
73821;BME280;62150;43.582;1.456;2023-10-08T17:21:50;100628.25;;;32.17;28.86
73821;BME280;62150;43.582;1.456;2023-10-08T17:24:19;100631.28;;;32.14;29.94
73821;BME280;62150;43.582;1.456;2023-10-08T17:26:46;100633.66;;;32.09;29.45
73821;BME280;62150;43.582;1.456;2023-10-08T17:29:15;100637.81;;;31.96;29.52
73821;BME280;62150;43.582;1.456;2023-10-08T17:31:43;100638.69;;;32.18;29.21
73821;BME280;62150;43.582;1.456;2023-10-08T17:34:12;100646.25;;;32.00;29.54
73821;BME280;62150;43.582;1.456;2023-10-08T17:36:41;100643.63;;;31.71;29.96
73821;BME280;62150;43.582;1.456;2023-10-08T17:39:10;100648.28;;;31.54;30.53
73821;BME280;62150;43.582;1.456;2023-10-08T17:41:44;100646.00;;;31.51;30.42
73821;BME280;62150;43.582;1.456;2023-10-08T17:44:15;100642.59;;;31.57;31.34
73821;BME280;62150;43.582;1.456;2023-10-08T17:46:43;100649.31;;;31.53;31.02
73821;BME280;62150;43.582;1.456;2023-10-08T17:49:11;100647.75;;;31.44;30.96
73821;BME280;62150;43.582;1.456;2023-10-08T17:51:39;100650.13;;;31.53;31.05
73821;BME280;62150;43.582;1.456;2023-10-08T17:54:07;100658.09;;;31.39;31.28
73821;BME280;62150;43.582;1.456;2023-10-08T17:56:36;100654.78;;;31.37;31.21
73821;BME280;62150;43.582;1.456;2023-10-08T17:59:06;100662.50;;;31.09;31.68
73821;BME280;62150;43.582;1.456;2023-10-08T18:01:38;100656.41;;;31.23;31.96
73821;BME280;62150;43.582;1.456;2023-10-08T18:04:06;100664.66;;;31.13;31.95
73821;BME280;62150;43.582;1.456;2023-10-08T18:06:36;100668.81;;;31.08;32.02
73821;BME280;62150;43.582;1.456;2023-10-08T18:09:06;100660.81;;;30.93;32.24
73821;BME280;62150;43.582;1.456;2023-10-08T18:11:46;100673.13;;;30.40;33.71
73821;BME280;62150;43.582;1.456;2023-10-08T18:14:16;100667.84;;;30.40;32.63
73821;BME280;62150;43.582;1.456;2023-10-08T18:16:44;100665.22;;;30.32;32.76
73821;BME280;62150;43.582;1.456;2023-10-08T18:19:13;100664.22;;;30.33;33.95
73821;BME280;62150;43.582;1.456;2023-10-08T18:21:42;100662.97;;;30.21;32.45